createdAt,value
2023-01-21T00:00:57.353Z,1.72
2023-01-21T00:03:25.022Z,1.67
2023-01-21T00:05:52.491Z,1.62
2023-01-21T00:08:19.680Z,1.58
2023-01-21T00:10:46.995Z,1.59
2023-01-21T00:13:14.198Z,1.51
2023-01-21T00:15:41.463Z,1.45
2023-01-21T00:18:08.715Z,1.40
2023-01-21T00:20:36.015Z,1.38
2023-01-21T00:23:03.328Z,1.35
2023-01-21T00:25:30.839Z,1.34
2023-01-21T00:27:58.827Z,1.37
2023-01-21T00:30:26.097Z,1.37
2023-01-21T00:32:53.362Z,1.36
2023-01-21T00:35:20.605Z,1.37
2023-01-21T00:37:47.836Z,1.38
2023-01-21T00:40:15.266Z,1.37
2023-01-21T00:42:42.726Z,1.37
2023-01-21T00:45:10.130Z,1.40
2023-01-21T00:47:37.348Z,1.42
2023-01-21T00:50:05.011Z,1.43
2023-01-21T00:52:32.219Z,1.53
2023-01-21T00:54:59.432Z,1.49
2023-01-21T00:57:26.694Z,1.44
2023-01-21T00:59:54.003Z,1.39
2023-01-21T01:02:21.213Z,1.53
2023-01-21T01:04:48.482Z,1.46
2023-01-21T01:07:15.711Z,1.42
2023-01-21T01:09:42.973Z,1.46
2023-01-21T01:12:10.172Z,1.44
2023-01-21T01:14:37.563Z,1.46
2023-01-21T01:17:04.965Z,1.39
2023-01-21T01:19:32.250Z,1.43
2023-01-21T01:21:59.483Z,1.36
2023-01-21T01:24:26.749Z,1.43
2023-01-21T01:26:53.983Z,1.37
2023-01-21T01:29:22.032Z,1.34
2023-01-21T01:31:49.283Z,1.31
2023-01-21T01:34:16.683Z,1.32
2023-01-21T01:36:43.892Z,1.26
2023-01-21T01:39:11.109Z,1.28
2023-01-21T01:41:38.333Z,1.30
2023-01-21T01:44:25.483Z,1.32
2023-01-21T01:46:55.171Z,1.31
2023-01-21T01:49:22.512Z,1.27
2023-01-21T01:51:59.309Z,1.25
2023-01-21T01:54:38.889Z,1.25
2023-01-21T01:57:09.224Z,1.25
2023-01-21T01:59:36.986Z,1.24
2023-01-21T02:02:08.973Z,1.20
2023-01-21T02:05:01.827Z,1.18
2023-01-21T02:07:30.902Z,1.22
2023-01-21T02:09:58.443Z,1.19
2023-01-21T02:12:25.817Z,1.28
2023-01-21T02:14:53.063Z,1.25
2023-01-21T02:17:54.170Z,1.15
2023-01-21T02:20:21.379Z,1.18
2023-01-21T02:22:57.723Z,1.19
2023-01-21T02:25:36.680Z,1.25
2023-01-21T02:28:39.427Z,1.16
2023-01-21T02:31:09.570Z,1.16
2023-01-21T02:33:57.060Z,1.16
2023-01-21T02:36:31.915Z,1.10
2023-01-21T02:39:01.864Z,1.10
2023-01-21T02:41:31.872Z,1.12
2023-01-21T02:44:17.730Z,1.07
2023-01-21T02:46:48.971Z,1.09
2023-01-21T02:49:21.601Z,1.06
2023-01-21T02:51:49.239Z,0.99
2023-01-21T02:54:36.677Z,1.01
2023-01-21T02:57:04.366Z,0.97
2023-01-21T02:59:32.088Z,0.90
2023-01-21T03:01:59.319Z,0.80
2023-01-21T03:04:29.285Z,0.72
2023-01-21T03:06:56.477Z,0.72
2023-01-21T03:09:29.144Z,0.68
2023-01-21T03:12:02.391Z,0.63
2023-01-21T03:14:51.599Z,0.53
2023-01-21T03:17:27.815Z,0.56
2023-01-21T03:20:07.432Z,0.53
2023-01-21T03:22:36.188Z,0.58
2023-01-21T03:25:04.416Z,0.54
2023-01-21T03:27:33.084Z,0.44
2023-01-21T03:30:03.878Z,0.47
2023-01-21T03:32:32.380Z,0.40
2023-01-21T03:35:01.770Z,0.34
2023-01-21T03:37:47.056Z,0.32
2023-01-21T03:40:20.495Z,0.30
2023-01-21T03:42:51.074Z,0.28
2023-01-21T03:45:23.532Z,0.28
2023-01-21T03:47:54.947Z,0.25
2023-01-21T03:50:22.105Z,0.27
2023-01-21T03:52:49.442Z,0.25
2023-01-21T03:55:16.936Z,0.26
2023-01-21T03:57:44.133Z,0.24
2023-01-21T04:00:12.488Z,0.22
2023-01-21T04:02:40.057Z,0.15
2023-01-21T04:05:07.597Z,0.14
2023-01-21T04:07:34.870Z,0.16
2023-01-21T04:10:02.321Z,0.16
2023-01-21T04:12:29.733Z,0.12
2023-01-21T04:14:58.269Z,0.17
2023-01-21T04:17:25.514Z,0.13
2023-01-21T04:19:52.744Z,0.21
2023-01-21T04:22:20.846Z,0.24
2023-01-21T04:24:48.067Z,0.16
2023-01-21T04:27:15.295Z,0.19
2023-01-21T04:29:42.615Z,0.20
2023-01-21T04:32:09.903Z,0.27
2023-01-21T04:34:37.090Z,0.17
2023-01-21T04:37:05.259Z,0.12
2023-01-21T04:39:32.496Z,0.08
2023-01-21T04:41:59.903Z,0.06
2023-01-21T04:44:27.220Z,0.05
2023-01-21T04:46:54.406Z,0.11
2023-01-21T04:49:21.746Z,0.12
2023-01-21T04:51:48.981Z,0.14
2023-01-21T04:54:16.284Z,0.22
2023-01-21T04:56:43.485Z,0.25
2023-01-21T04:59:11.261Z,0.18
2023-01-21T05:01:38.498Z,0.10
2023-01-21T05:04:05.762Z,0.07
2023-01-21T05:06:32.949Z,-0.01
2023-01-21T05:09:00.179Z,-0.06
2023-01-21T05:11:27.435Z,-0.16
2023-01-21T05:13:54.633Z,-0.17
2023-01-21T05:16:22.203Z,-0.15
2023-01-21T05:18:51.898Z,-0.17
2023-01-21T05:21:22.149Z,-0.14
2023-01-21T05:23:49.457Z,-0.13
2023-01-21T05:26:16.727Z,-0.09
2023-01-21T05:28:43.947Z,-0.05
2023-01-21T05:31:13.693Z,-0.06
2023-01-21T05:33:44.022Z,-0.05
2023-01-21T05:36:11.286Z,-0.08
2023-01-21T05:38:41.273Z,-0.10
2023-01-21T05:41:08.521Z,-0.05
2023-01-21T05:43:35.903Z,-0.11
2023-01-21T05:46:03.115Z,-0.16
2023-01-21T05:48:30.428Z,-0.16
2023-01-21T05:50:58.435Z,-0.16
2023-01-21T05:53:26.107Z,-0.28
2023-01-21T05:55:54.085Z,-0.31
2023-01-21T05:58:22.033Z,-0.43
2023-01-21T06:00:49.400Z,-0.48
2023-01-21T06:03:17.459Z,-0.49
2023-01-21T06:05:45.286Z,-0.56
2023-01-21T06:08:13.354Z,-0.52
2023-01-21T06:10:40.656Z,-0.44
2023-01-21T06:13:09.884Z,-0.45
2023-01-21T06:15:37.335Z,-0.41
2023-01-21T06:18:04.709Z,-0.42
2023-01-21T06:20:32.112Z,-0.44
2023-01-21T06:23:01.442Z,-0.41
2023-01-21T06:25:28.919Z,-0.38
2023-01-21T06:27:56.500Z,-0.32
2023-01-21T06:30:24.669Z,-0.28
2023-01-21T06:32:52.548Z,-0.40
2023-01-21T06:35:19.985Z,-0.42
2023-01-21T06:37:47.354Z,-0.39
2023-01-21T06:40:15.180Z,-0.34
2023-01-21T06:42:45.373Z,-0.31
2023-01-21T06:45:12.892Z,-0.29
2023-01-21T06:47:41.525Z,-0.26
2023-01-21T06:50:10.575Z,-0.32
2023-01-21T06:52:37.830Z,-0.37
2023-01-21T06:55:05.434Z,-0.35
2023-01-21T06:57:32.760Z,-0.39
2023-01-21T07:00:00.143Z,-0.37
2023-01-21T07:02:27.353Z,-0.37
2023-01-21T07:04:54.659Z,-0.35
2023-01-21T07:07:21.950Z,-0.30
2023-01-21T07:09:49.262Z,-0.21
2023-01-21T07:12:16.478Z,-0.19
2023-01-21T07:14:43.845Z,-0.23
2023-01-21T07:17:16.675Z,-0.23
2023-01-21T07:19:44.126Z,-0.18
2023-01-21T07:22:11.313Z,-0.10
2023-01-21T07:24:38.586Z,-0.14
2023-01-21T07:27:06.350Z,-0.10
2023-01-21T07:29:35.844Z,-0.07
2023-01-21T07:32:05.552Z,-0.09
2023-01-21T07:34:36.192Z,-0.02
2023-01-21T07:37:03.480Z,0.00
2023-01-21T07:39:30.747Z,0.09
2023-01-21T07:41:58.291Z,0.12
2023-01-21T07:44:27.273Z,0.20
2023-01-21T07:46:54.854Z,0.23
2023-01-21T07:49:22.085Z,0.24
2023-01-21T07:51:50.159Z,0.29
2023-01-21T07:54:17.381Z,0.34
2023-01-21T07:56:44.871Z,0.34
2023-01-21T07:59:13.980Z,0.39
2023-01-21T08:01:41.508Z,0.43
2023-01-21T08:04:09.938Z,0.46
2023-01-21T08:06:38.117Z,0.44
2023-01-21T08:09:09.225Z,0.52
2023-01-21T08:11:39.176Z,0.47
2023-01-21T08:14:07.074Z,0.48
2023-01-21T08:16:34.550Z,0.41
2023-01-21T08:19:01.912Z,0.32
2023-01-21T08:21:29.240Z,0.25
2023-01-21T08:23:56.446Z,0.11
2023-01-21T08:26:25.784Z,0.23
2023-01-21T08:28:56.190Z,0.35
2023-01-21T08:31:23.855Z,0.41
2023-01-21T08:33:51.086Z,0.56
2023-01-21T08:36:18.383Z,0.39
2023-01-21T08:38:48.416Z,0.37
2023-01-21T08:41:16.757Z,0.25
2023-01-21T08:43:44.021Z,0.15
2023-01-21T08:46:11.309Z,0.05
2023-01-21T08:48:38.620Z,0.05
2023-01-21T08:51:06.046Z,0.13
2023-01-21T08:53:33.321Z,0.10
2023-01-21T08:56:01.734Z,0.15
2023-01-21T08:58:29.724Z,0.10
2023-01-21T09:00:57.739Z,0.02
2023-01-21T09:03:25.376Z,-0.01
2023-01-21T09:05:53.127Z,0.06
2023-01-21T09:08:20.435Z,0.05
2023-01-21T09:11:01.062Z,-0.02
2023-01-21T09:13:29.371Z,-0.03
2023-01-21T09:15:56.971Z,0.01
2023-01-21T09:18:24.895Z,-0.07
2023-01-21T09:20:52.368Z,0.03
2023-01-21T09:23:25.771Z,0.04
2023-01-21T09:25:53.211Z,0.12
2023-01-21T09:28:21.109Z,0.25
2023-01-21T09:30:48.692Z,0.31
2023-01-21T09:33:15.952Z,0.45
2023-01-21T09:35:44.475Z,0.53
2023-01-21T09:38:12.920Z,0.67
2023-01-21T09:40:44.895Z,0.79
2023-01-21T09:43:14.962Z,0.80
2023-01-21T09:45:44.149Z,0.77
2023-01-21T09:48:16.239Z,0.60
2023-01-21T09:50:45.447Z,0.42
2023-01-21T09:53:23.156Z,0.43
2023-01-21T09:55:53.153Z,0.42
2023-01-21T09:58:26.350Z,0.51
2023-01-21T10:00:56.651Z,0.56
2023-01-21T10:03:29.893Z,0.52
2023-01-21T10:05:59.217Z,0.55
2023-01-21T10:08:32.607Z,0.72
2023-01-21T10:11:02.873Z,0.81
2023-01-21T10:13:50.452Z,0.85
2023-01-21T10:16:36.338Z,0.79
2023-01-21T10:19:05.733Z,0.71
2023-01-21T10:21:45.765Z,0.59
2023-01-21T10:24:17.110Z,0.64
2023-01-21T10:26:46.310Z,0.63
2023-01-21T10:29:18.023Z,0.66
2023-01-21T10:31:50.252Z,0.63
2023-01-21T10:34:18.450Z,0.66
2023-01-21T10:36:45.760Z,0.64
2023-01-21T10:39:22.776Z,0.72
2023-01-21T10:42:13.257Z,0.76
2023-01-21T10:44:59.155Z,0.89
2023-01-21T10:47:45.053Z,0.92
2023-01-21T10:50:18.337Z,0.96
2023-01-21T10:52:53.194Z,0.93
2023-01-21T10:55:20.510Z,0.92
2023-01-21T10:58:12.552Z,0.90
2023-01-21T11:00:45.169Z,0.88
2023-01-21T11:03:17.158Z,0.84
2023-01-21T11:05:44.754Z,0.73
2023-01-21T11:08:16.964Z,0.53
2023-01-21T11:10:45.816Z,0.54
2023-01-21T11:13:16.403Z,0.59
2023-01-21T11:15:46.199Z,0.66
2023-01-21T11:18:32.270Z,0.60
2023-01-21T11:21:00.764Z,0.61
2023-01-21T11:23:29.972Z,0.53
2023-01-21T11:26:01.431Z,0.51
2023-01-21T11:28:33.210Z,0.51
2023-01-21T11:31:04.238Z,0.50
2023-01-21T11:33:31.675Z,0.48
2023-01-21T11:36:09.468Z,0.41
2023-01-21T11:38:37.331Z,0.22
2023-01-21T11:41:06.038Z,0.28
2023-01-21T11:43:35.030Z,0.39
2023-01-21T11:46:20.999Z,0.51
2023-01-21T11:48:48.494Z,0.54
2023-01-21T11:51:19.092Z,0.46
2023-01-21T11:53:46.976Z,0.55
2023-01-21T11:56:15.931Z,0.52
2023-01-21T11:58:43.486Z,0.36
2023-01-21T12:01:21.623Z,0.35
2023-01-21T12:03:48.895Z,0.26
2023-01-21T12:06:20.935Z,0.10
2023-01-21T12:08:51.653Z,0.12
2023-01-21T12:11:23.337Z,0.12
2023-01-21T12:14:09.345Z,0.14
2023-01-21T12:16:37.943Z,0.10
2023-01-21T12:19:23.128Z,0.07
2023-01-21T12:21:50.354Z,0.04
2023-01-21T12:24:43.905Z,0.05
2023-01-21T12:27:46.589Z,0.07
2023-01-21T12:30:19.859Z,0.11
2023-01-21T12:32:56.989Z,0.07
2023-01-21T12:35:30.385Z,-0.02
2023-01-21T12:38:04.098Z,0.01
2023-01-21T12:40:36.213Z,-0.03
2023-01-21T12:43:08.702Z,0.03
2023-01-21T12:45:43.598Z,-0.10
2023-01-21T12:48:15.189Z,-0.16
2023-01-21T12:50:52.863Z,-0.19
2023-01-21T12:53:32.118Z,-0.16
2023-01-21T12:55:59.368Z,-0.14
2023-01-21T12:58:30.577Z,-0.10
2023-01-21T13:01:03.068Z,-0.11
2023-01-21T13:03:42.200Z,-0.08
2023-01-21T13:06:12.798Z,-0.06
2023-01-21T13:08:40.037Z,-0.05
2023-01-21T13:11:10.352Z,-0.13
2023-01-21T13:13:46.095Z,-0.24
2023-01-21T13:16:13.627Z,-0.31
2023-01-21T13:18:46.109Z,-0.38
2023-01-21T13:21:28.179Z,-0.28
2023-01-21T13:23:55.915Z,-0.26
2023-01-21T13:26:35.395Z,-0.26
2023-01-21T13:29:10.889Z,-0.33
2023-01-21T13:31:47.164Z,-0.38
2023-01-21T13:34:23.496Z,-0.45
2023-01-21T13:36:53.555Z,-0.51
2023-01-21T13:39:27.220Z,-0.57
2023-01-21T13:41:54.436Z,-0.57
2023-01-21T13:44:37.725Z,-0.63
2023-01-21T13:47:09.056Z,-0.64
2023-01-21T13:50:01.949Z,-0.63
2023-01-21T13:52:51.921Z,-0.63
2023-01-21T13:55:27.500Z,-0.62
2023-01-21T13:58:03.830Z,-0.65
2023-01-21T14:00:43.733Z,-0.59
2023-01-21T14:03:26.016Z,-0.55
2023-01-21T14:05:59.742Z,-0.59
2023-01-21T14:08:31.150Z,-0.58
2023-01-21T14:10:58.318Z,-0.61
2023-01-21T14:13:28.293Z,-0.66
2023-01-21T14:16:14.192Z,-0.69
2023-01-21T14:19:00.017Z,-0.76
2023-01-21T14:21:39.178Z,-0.76
2023-01-21T14:24:24.781Z,-0.69
2023-01-21T14:27:01.591Z,-0.73
2023-01-21T14:29:51.966Z,-0.74
2023-01-21T14:32:26.582Z,-0.78
2023-01-21T14:35:06.285Z,-0.90
2023-01-21T14:37:52.289Z,-0.86
2023-01-21T14:40:25.586Z,-0.92
2023-01-21T14:42:53.583Z,-0.95
2023-01-21T14:45:26.017Z,-0.93
2023-01-21T14:47:54.274Z,-0.94
2023-01-21T14:50:40.180Z,-1.06
2023-01-21T14:53:11.653Z,-1.16
2023-01-21T14:55:38.987Z,-1.20
2023-01-21T14:58:06.335Z,-1.22
2023-01-21T15:00:34.952Z,-1.23
2023-01-21T15:03:02.138Z,-1.30
2023-01-21T15:05:32.970Z,-1.33
2023-01-21T15:08:10.813Z,-1.40
2023-01-21T15:10:39.456Z,-1.41
2023-01-21T15:13:26.624Z,-1.44
2023-01-21T15:16:05.892Z,-1.45
2023-01-21T15:18:40.939Z,-1.46
2023-01-21T15:21:28.777Z,-1.73
2023-01-21T15:24:16.141Z,-1.71
2023-01-21T15:27:03.302Z,-1.81
2023-01-21T15:29:35.664Z,-1.91
2023-01-21T15:32:14.004Z,-1.93
2023-01-21T15:34:42.613Z,-1.94
2023-01-21T15:37:16.722Z,-1.96
2023-01-21T15:39:44.072Z,-1.98
2023-01-21T15:42:11.368Z,-2.00
2023-01-21T15:45:01.641Z,-2.07
2023-01-21T15:47:30.212Z,-2.07
2023-01-21T15:50:00.228Z,-1.98
2023-01-21T15:52:33.903Z,-2.08
2023-01-21T15:55:07.179Z,-2.04
2023-01-21T15:57:59.387Z,-2.00
2023-01-21T16:00:29.656Z,-2.01
2023-01-21T16:02:59.738Z,-2.02
2023-01-21T16:05:29.762Z,-2.07
2023-01-21T16:08:00.112Z,-2.03
2023-01-21T16:10:37.437Z,-2.07
2023-01-21T16:13:07.737Z,-2.11
2023-01-21T16:15:34.996Z,-2.05
2023-01-21T16:18:11.412Z,-2.06
2023-01-21T16:20:42.621Z,-2.07
2023-01-21T16:23:10.028Z,-2.10
2023-01-21T16:25:45.193Z,-2.09
2023-01-21T16:28:12.431Z,-2.16
2023-01-21T16:30:39.693Z,-2.20
2023-01-21T16:33:11.743Z,-2.17
2023-01-21T16:35:47.922Z,-2.21
2023-01-21T16:38:17.262Z,-2.23
2023-01-21T16:40:44.859Z,-2.28
2023-01-21T16:43:15.666Z,-2.27
2023-01-21T16:45:48.801Z,-2.24
2023-01-21T16:48:34.309Z,-2.26
2023-01-21T16:51:01.690Z,-2.34
2023-01-21T16:53:28.939Z,-2.37
2023-01-21T16:55:57.111Z,-2.39
2023-01-21T16:58:26.803Z,-2.42
2023-01-21T17:00:58.929Z,-2.46
2023-01-21T17:03:26.474Z,-2.54
2023-01-21T17:05:55.411Z,-2.54
2023-01-21T17:08:23.138Z,-2.65
2023-01-21T17:11:01.081Z,-2.63
2023-01-21T17:13:29.869Z,-2.66
2023-01-21T17:16:00.245Z,-2.60
2023-01-21T17:18:32.850Z,-2.59
2023-01-21T17:21:06.691Z,-2.58
2023-01-21T17:23:44.103Z,-2.54
2023-01-21T17:26:20.197Z,-2.43
2023-01-21T17:28:57.789Z,-2.53
2023-01-21T17:31:35.645Z,-2.52
2023-01-21T17:34:08.892Z,-2.50
2023-01-21T17:36:40.332Z,-2.53
2023-01-21T17:39:14.222Z,-2.58
2023-01-21T17:41:43.861Z,-2.58
2023-01-21T17:44:24.467Z,-2.61
2023-01-21T17:46:54.083Z,-2.59
2023-01-21T17:49:23.415Z,-2.58
2023-01-21T17:51:52.569Z,-2.66
2023-01-21T17:54:24.188Z,-2.76
2023-01-21T17:56:57.589Z,-2.86
2023-01-21T17:59:37.878Z,-2.96
2023-01-21T18:02:10.200Z,-2.89
2023-01-21T18:04:37.431Z,-2.82
2023-01-21T18:07:14.666Z,-2.74
2023-01-21T18:09:42.422Z,-2.77
2023-01-21T18:12:12.312Z,-2.84
2023-01-21T18:14:39.545Z,-2.80
2023-01-21T18:17:06.797Z,-2.81
2023-01-21T18:19:36.155Z,-2.83
2023-01-21T18:22:04.642Z,-2.77
2023-01-21T18:24:32.056Z,-2.83
2023-01-21T18:27:00.372Z,-2.91
2023-01-21T18:29:28.194Z,-2.91
2023-01-21T18:31:55.570Z,-2.93
2023-01-21T18:34:23.235Z,-2.87
2023-01-21T18:36:50.840Z,-2.84
2023-01-21T18:39:19.325Z,-2.88
2023-01-21T18:41:46.541Z,-2.97
2023-01-21T18:44:14.162Z,-2.94
2023-01-21T18:46:43.318Z,-2.84
2023-01-21T18:49:20.306Z,-2.92
2023-01-21T18:51:47.918Z,-3.00
2023-01-21T18:54:15.829Z,-2.97
2023-01-21T18:56:43.498Z,-3.03
2023-01-21T18:59:14.709Z,-3.03
2023-01-21T19:01:42.287Z,-3.00
2023-01-21T19:04:11.952Z,-2.91
2023-01-21T19:06:39.166Z,-2.94
2023-01-21T19:09:14.062Z,-2.96
2023-01-21T19:11:41.262Z,-2.90
2023-01-21T19:14:08.952Z,-2.85
2023-01-21T19:16:36.315Z,-2.82
2023-01-21T19:19:13.627Z,-2.86
2023-01-21T19:21:43.876Z,-2.89
2023-01-21T19:24:12.274Z,-2.78
2023-01-21T19:26:39.968Z,-2.82
2023-01-21T19:29:13.444Z,-2.82
2023-01-21T19:31:40.846Z,-2.84
2023-01-21T19:34:11.304Z,-2.83
2023-01-21T19:36:39.431Z,-2.85
2023-01-21T19:39:13.959Z,-2.82
2023-01-21T19:41:41.262Z,-2.84
2023-01-21T19:44:08.687Z,-2.84
2023-01-21T19:46:35.962Z,-2.84
2023-01-21T19:49:11.081Z,-2.78
2023-01-21T19:51:38.268Z,-2.80
2023-01-21T19:54:05.511Z,-2.84
2023-01-21T19:56:32.907Z,-2.74
2023-01-21T19:59:02.569Z,-2.91
2023-01-21T20:01:30.000Z,-2.96
2023-01-21T20:04:00.515Z,-2.85
2023-01-21T20:06:38.003Z,-2.98
2023-01-21T20:09:05.411Z,-2.93
2023-01-21T20:11:33.302Z,-2.90
2023-01-21T20:14:00.595Z,-2.77
2023-01-21T20:16:27.886Z,-2.71
2023-01-21T20:18:56.375Z,-2.74
2023-01-21T20:21:23.686Z,-2.68
2023-01-21T20:23:50.999Z,-2.56
2023-01-21T20:26:21.172Z,-2.66
2023-01-21T20:28:51.510Z,-2.62
2023-01-21T20:31:19.068Z,-2.66
2023-01-21T20:33:46.441Z,-2.63
2023-01-21T20:36:19.595Z,-2.67
2023-01-21T20:38:47.360Z,-2.70
2023-01-21T20:41:14.625Z,-2.76
2023-01-21T20:43:41.935Z,-2.59
2023-01-21T20:46:20.110Z,-2.61
2023-01-21T20:48:47.379Z,-2.66
2023-01-21T20:51:14.743Z,-2.64
2023-01-21T20:53:42.568Z,-2.62
2023-01-21T20:56:17.908Z,-2.73
2023-01-21T20:58:47.840Z,-2.67
2023-01-21T21:01:16.591Z,-2.57
2023-01-21T21:03:44.214Z,-2.52
2023-01-21T21:06:13.004Z,-2.59
2023-01-21T21:08:41.216Z,-2.58
2023-01-21T21:11:08.783Z,-2.56
2023-01-21T21:13:36.412Z,-2.53
2023-01-21T21:16:14.406Z,-2.55
2023-01-21T21:18:41.636Z,-2.62
2023-01-21T21:21:10.180Z,-2.71
2023-01-21T21:23:37.510Z,-2.67
2023-01-21T21:26:05.083Z,-2.61
2023-01-21T21:28:32.358Z,-2.71
2023-01-21T21:31:01.218Z,-2.78
2023-01-21T21:33:28.908Z,-2.71
2023-01-21T21:35:56.102Z,-2.69
2023-01-21T21:38:23.511Z,-2.64
2023-01-21T21:40:53.943Z,-2.58
2023-01-21T21:43:36.054Z,-2.53
2023-01-21T21:46:28.535Z,-2.53
2023-01-21T21:48:55.796Z,-2.46
2023-01-21T21:51:23.732Z,-2.36
2023-01-21T21:53:51.202Z,-2.48
2023-01-21T21:56:19.925Z,-2.46
2023-01-21T21:58:47.648Z,-2.47
2023-01-21T22:01:23.118Z,-2.44
2023-01-21T22:03:50.419Z,-2.42
2023-01-21T22:06:19.333Z,-2.40
2023-01-21T22:08:47.040Z,-2.42
2023-01-21T22:11:15.375Z,-2.34
2023-01-21T22:13:43.646Z,-2.40
2023-01-21T22:16:16.007Z,-2.46
2023-01-21T22:18:43.385Z,-2.54
2023-01-21T22:21:18.110Z,-2.53
2023-01-21T22:23:45.440Z,-2.46
2023-01-21T22:26:15.246Z,-2.47
2023-01-21T22:28:43.298Z,-2.55
2023-01-21T22:31:14.856Z,-2.55
2023-01-21T22:33:42.233Z,-2.59
2023-01-21T22:36:10.964Z,-2.61
2023-01-21T22:38:40.628Z,-2.69
2023-01-21T22:41:09.329Z,-2.81
2023-01-21T22:43:38.528Z,-2.96
2023-01-21T22:46:05.800Z,-3.05
2023-01-21T22:48:34.024Z,-2.99
2023-01-21T22:51:01.801Z,-3.12
2023-01-21T22:53:29.127Z,-3.17
2023-01-21T22:56:00.243Z,-3.20
2023-01-21T22:58:28.656Z,-3.19
2023-01-21T23:00:56.307Z,-3.21
2023-01-21T23:03:23.976Z,-3.19
2023-01-21T23:05:51.530Z,-3.10
2023-01-21T23:08:19.249Z,-2.96
2023-01-21T23:10:46.965Z,-3.01
2023-01-21T23:13:15.101Z,-3.01
2023-01-21T23:15:43.043Z,-2.99
2023-01-21T23:18:10.259Z,-2.98
2023-01-21T23:20:37.635Z,-2.85
2023-01-21T23:23:05.032Z,-2.85
2023-01-21T23:25:32.233Z,-2.82
2023-01-21T23:28:01.730Z,-2.78
2023-01-21T23:30:30.325Z,-2.77
2023-01-21T23:32:57.573Z,-2.68
2023-01-21T23:35:24.877Z,-2.60
2023-01-21T23:37:52.177Z,-2.52
2023-01-21T23:40:19.686Z,-2.47
2023-01-21T23:42:50.651Z,-2.48
2023-01-21T23:45:17.999Z,-2.40
2023-01-21T23:47:47.524Z,-2.35
2023-01-21T23:50:14.834Z,-2.31
2023-01-21T23:52:42.231Z,-2.34
2023-01-21T23:55:10.271Z,-2.35
2023-01-21T23:57:37.616Z,-2.32
